sensor_id;sensor_type;location;lat;lon;timestamp;temperature;humidity
25582;DHT22;13462;50.764;4.332;2023-02-01T00:02:02;7.40;99.90
25582;DHT22;13462;50.764;4.332;2023-02-01T00:04:28;7.40;99.90
25582;DHT22;13462;50.764;4.332;2023-02-01T00:06:53;7.30;99.90
25582;DHT22;13462;50.764;4.332;2023-02-01T00:09:19;7.30;99.90
25582;DHT22;13462;50.764;4.332;2023-02-01T00:11:44;7.40;99.90
25582;DHT22;13462;50.764;4.332;2023-02-01T00:14:10;7.30;99.90
25582;DHT22;13462;50.764;4.332;2023-02-01T00:16:35;7.40;99.90
25582;DHT22;13462;50.764;4.332;2023-02-01T00:19:02;7.30;99.90
25582;DHT22;13462;50.764;4.332;2023-02-01T00:21:28;7.30;99.90
25582;DHT22;13462;50.764;4.332;2023-02-01T00:23:54;7.30;99.90
25582;DHT22;13462;50.764;4.332;2023-02-01T00:26:22;7.30;99.90
25582;DHT22;13462;50.764;4.332;2023-02-01T00:28:48;7.30;99.90
25582;DHT22;13462;50.764;4.332;2023-02-01T00:31:13;7.30;99.90
25582;DHT22;13462;50.764;4.332;2023-02-01T00:33:40;7.30;99.90
25582;DHT22;13462;50.764;4.332;2023-02-01T00:36:06;7.30;99.90
25582;DHT22;13462;50.764;4.332;2023-02-01T00:38:33;7.30;99.90
25582;DHT22;13462;50.764;4.332;2023-02-01T00:41:06;7.20;99.90
25582;DHT22;13462;50.764;4.332;2023-02-01T00:43:33;7.20;99.90
25582;DHT22;13462;50.764;4.332;2023-02-01T00:45:58;7.30;99.90
25582;DHT22;13462;50.764;4.332;2023-02-01T00:48:24;7.30;99.90
25582;DHT22;13462;50.764;4.332;2023-02-01T00:50:50;7.20;99.90
25582;DHT22;13462;50.764;4.332;2023-02-01T00:53:15;7.20;99.90
25582;DHT22;13462;50.764;4.332;2023-02-01T00:55:44;7.10;99.90
25582;DHT22;13462;50.764;4.332;2023-02-01T00:58:09;7.20;99.90
25582;DHT22;13462;50.764;4.332;2023-02-01T01:00:35;7.20;99.90
25582;DHT22;13462;50.764;4.332;2023-02-01T01:03:00;7.20;99.90
25582;DHT22;13462;50.764;4.332;2023-02-01T01:05:26;7.20;99.90
25582;DHT22;13462;50.764;4.332;2023-02-01T01:07:53;7.20;99.90
25582;DHT22;13462;50.764;4.332;2023-02-01T01:10:18;7.10;99.90
25582;DHT22;13462;50.764;4.332;2023-02-01T01:12:44;7.10;99.90
25582;DHT22;13462;50.764;4.332;2023-02-01T01:15:09;7.00;99.90
25582;DHT22;13462;50.764;4.332;2023-02-01T01:17:35;7.00;99.90
25582;DHT22;13462;50.764;4.332;2023-02-01T01:20:00;7.00;99.90
25582;DHT22;13462;50.764;4.332;2023-02-01T01:22:26;6.90;99.90
25582;DHT22;13462;50.764;4.332;2023-02-01T01:24:51;7.00;99.90
25582;DHT22;13462;50.764;4.332;2023-02-01T01:27:17;7.00;99.90
25582;DHT22;13462;50.764;4.332;2023-02-01T01:29:48;7.00;99.90
25582;DHT22;13462;50.764;4.332;2023-02-01T01:32:13;7.00;99.90
25582;DHT22;13462;50.764;4.332;2023-02-01T01:34:39;7.00;99.90
25582;DHT22;13462;50.764;4.332;2023-02-01T01:37:04;6.90;99.90
25582;DHT22;13462;50.764;4.332;2023-02-01T01:39:30;6.80;99.90
25582;DHT22;13462;50.764;4.332;2023-02-01T01:41:55;6.80;99.90
25582;DHT22;13462;50.764;4.332;2023-02-01T01:47:04;6.80;99.90
25582;DHT22;13462;50.764;4.332;2023-02-01T01:49:30;6.90;99.90
25582;DHT22;13462;50.764;4.332;2023-02-01T01:51:56;6.90;99.90
25582;DHT22;13462;50.764;4.332;2023-02-01T01:54:25;6.90;99.90
25582;DHT22;13462;50.764;4.332;2023-02-01T01:56:51;7.00;99.90
25582;DHT22;13462;50.764;4.332;2023-02-01T01:59:19;6.90;99.90
25582;DHT22;13462;50.764;4.332;2023-02-01T02:01:46;6.90;99.90
25582;DHT22;13462;50.764;4.332;2023-02-01T02:04:11;6.90;99.90
25582;DHT22;13462;50.764;4.332;2023-02-01T02:09:14;6.90;99.90
25582;DHT22;13462;50.764;4.332;2023-02-01T02:11:40;6.90;99.90
25582;DHT22;13462;50.764;4.332;2023-02-01T02:14:06;6.90;99.90
25582;DHT22;13462;50.764;4.332;2023-02-01T02:21:52;7.10;99.90
25582;DHT22;13462;50.764;4.332;2023-02-01T02:27:09;7.00;99.90
25582;DHT22;13462;50.764;4.332;2023-02-01T02:32:20;7.00;99.90
25582;DHT22;13462;50.764;4.332;2023-02-01T02:34:55;7.00;99.90
25582;DHT22;13462;50.764;4.332;2023-02-01T02:37:30;7.00;99.90
25582;DHT22;13462;50.764;4.332;2023-02-01T02:42:43;7.00;99.90
25582;DHT22;13462;50.764;4.332;2023-02-01T02:48:38;7.10;99.90
25582;DHT22;13462;50.764;4.332;2023-02-01T02:53:56;7.00;99.90
25582;DHT22;13462;50.764;4.332;2023-02-01T02:56:41;6.90;99.90
25582;DHT22;13462;50.764;4.332;2023-02-01T02:59:26;6.90;99.90
25582;DHT22;13462;50.764;4.332;2023-02-01T03:02:11;6.90;99.90
25582;DHT22;13462;50.764;4.332;2023-02-01T03:04:56;6.90;99.90
25582;DHT22;13462;50.764;4.332;2023-02-01T03:10:07;6.80;99.90
25582;DHT22;13462;50.764;4.332;2023-02-01T03:12:37;6.70;99.90
25582;DHT22;13462;50.764;4.332;2023-02-01T03:15:34;6.60;99.90
25582;DHT22;13462;50.764;4.332;2023-02-01T03:18:01;6.60;99.90
25582;DHT22;13462;50.764;4.332;2023-02-01T03:20:28;6.50;99.90
25582;DHT22;13462;50.764;4.332;2023-02-01T03:22:54;6.40;99.90
25582;DHT22;13462;50.764;4.332;2023-02-01T03:25:27;6.40;99.90
25582;DHT22;13462;50.764;4.332;2023-02-01T03:30:23;6.40;99.90
25582;DHT22;13462;50.764;4.332;2023-02-01T03:32:51;6.30;99.90
25582;DHT22;13462;50.764;4.332;2023-02-01T03:40:37;6.50;99.90
25582;DHT22;13462;50.764;4.332;2023-02-01T03:43:04;6.20;99.90
25582;DHT22;13462;50.764;4.332;2023-02-01T03:45:36;6.10;99.90
25582;DHT22;13462;50.764;4.332;2023-02-01T03:48:05;6.10;99.90
25582;DHT22;13462;50.764;4.332;2023-02-01T03:50:32;6.00;99.90
25582;DHT22;13462;50.764;4.332;2023-02-01T03:53:00;6.00;99.90
25582;DHT22;13462;50.764;4.332;2023-02-01T03:55:27;6.00;99.90
25582;DHT22;13462;50.764;4.332;2023-02-01T04:00:37;6.00;99.90
25582;DHT22;13462;50.764;4.332;2023-02-01T04:03:04;6.00;99.90
25582;DHT22;13462;50.764;4.332;2023-02-01T04:05:30;5.90;99.90
25582;DHT22;13462;50.764;4.332;2023-02-01T04:07:55;5.80;99.90
25582;DHT22;13462;50.764;4.332;2023-02-01T04:10:21;5.90;99.90
25582;DHT22;13462;50.764;4.332;2023-02-01T04:12:46;5.90;99.90
25582;DHT22;13462;50.764;4.332;2023-02-01T04:15:12;5.90;99.90
25582;DHT22;13462;50.764;4.332;2023-02-01T04:17:37;5.80;99.90
25582;DHT22;13462;50.764;4.332;2023-02-01T04:20:03;5.80;99.90
25582;DHT22;13462;50.764;4.332;2023-02-01T04:22:30;5.80;99.90
25582;DHT22;13462;50.764;4.332;2023-02-01T04:24:55;5.80;99.90
25582;DHT22;13462;50.764;4.332;2023-02-01T04:27:21;5.80;99.90
25582;DHT22;13462;50.764;4.332;2023-02-01T04:29:48;5.70;99.90
25582;DHT22;13462;50.764;4.332;2023-02-01T04:32:16;5.60;99.90
25582;DHT22;13462;50.764;4.332;2023-02-01T04:34:42;5.50;99.90
25582;DHT22;13462;50.764;4.332;2023-02-01T04:37:07;5.50;99.90
25582;DHT22;13462;50.764;4.332;2023-02-01T04:39:33;5.50;99.90
25582;DHT22;13462;50.764;4.332;2023-02-01T04:41:59;5.40;99.90
25582;DHT22;13462;50.764;4.332;2023-02-01T04:44:24;5.40;99.90
25582;DHT22;13462;50.764;4.332;2023-02-01T04:46:50;5.30;99.90
25582;DHT22;13462;50.764;4.332;2023-02-01T04:49:15;5.30;99.90
25582;DHT22;13462;50.764;4.332;2023-02-01T04:51:41;5.30;99.90
25582;DHT22;13462;50.764;4.332;2023-02-01T04:54:07;5.30;99.90
25582;DHT22;13462;50.764;4.332;2023-02-01T04:56:33;5.30;99.90
25582;DHT22;13462;50.764;4.332;2023-02-01T04:59:00;5.20;99.90
25582;DHT22;13462;50.764;4.332;2023-02-01T05:01:25;5.20;99.90
25582;DHT22;13462;50.764;4.332;2023-02-01T05:03:51;5.20;99.90
25582;DHT22;13462;50.764;4.332;2023-02-01T05:06:16;5.10;99.90
25582;DHT22;13462;50.764;4.332;2023-02-01T05:08:42;5.20;99.90
25582;DHT22;13462;50.764;4.332;2023-02-01T05:11:07;5.20;99.90
25582;DHT22;13462;50.764;4.332;2023-02-01T05:13:53;5.10;99.90
25582;DHT22;13462;50.764;4.332;2023-02-01T05:16:18;5.10;99.90
25582;DHT22;13462;50.764;4.332;2023-02-01T05:18:44;5.10;99.90
25582;DHT22;13462;50.764;4.332;2023-02-01T05:21:09;5.10;99.90
25582;DHT22;13462;50.764;4.332;2023-02-01T05:23:35;5.00;99.90
25582;DHT22;13462;50.764;4.332;2023-02-01T05:26:20;5.00;99.90
25582;DHT22;13462;50.764;4.332;2023-02-01T05:28:45;5.00;99.90
25582;DHT22;13462;50.764;4.332;2023-02-01T05:31:11;5.00;99.90
25582;DHT22;13462;50.764;4.332;2023-02-01T05:33:37;5.00;99.90
25582;DHT22;13462;50.764;4.332;2023-02-01T05:36:03;5.00;99.90
25582;DHT22;13462;50.764;4.332;2023-02-01T05:38:28;4.90;99.90
25582;DHT22;13462;50.764;4.332;2023-02-01T05:40:55;4.90;99.90
25582;DHT22;13462;50.764;4.332;2023-02-01T05:46:12;4.90;99.90
25582;DHT22;13462;50.764;4.332;2023-02-01T05:48:58;4.80;99.90
25582;DHT22;13462;50.764;4.332;2023-02-01T05:51:26;4.80;99.90
25582;DHT22;13462;50.764;4.332;2023-02-01T05:54:00;4.90;99.90
25582;DHT22;13462;50.764;4.332;2023-02-01T05:59:34;4.80;99.90
25582;DHT22;13462;50.764;4.332;2023-02-01T06:02:02;4.90;99.90
25582;DHT22;13462;50.764;4.332;2023-02-01T06:04:28;4.80;99.90
25582;DHT22;13462;50.764;4.332;2023-02-01T06:06:56;4.70;99.90
25582;DHT22;13462;50.764;4.332;2023-02-01T06:09:31;4.70;99.90
25582;DHT22;13462;50.764;4.332;2023-02-01T06:11:57;4.60;99.90
25582;DHT22;13462;50.764;4.332;2023-02-01T06:14:23;4.70;99.90
25582;DHT22;13462;50.764;4.332;2023-02-01T06:16:49;4.60;99.90
25582;DHT22;13462;50.764;4.332;2023-02-01T06:19:14;4.60;99.90
25582;DHT22;13462;50.764;4.332;2023-02-01T06:21:40;4.60;99.90
25582;DHT22;13462;50.764;4.332;2023-02-01T06:24:05;4.50;99.90
25582;DHT22;13462;50.764;4.332;2023-02-01T06:26:31;4.50;99.90
25582;DHT22;13462;50.764;4.332;2023-02-01T06:28:57;4.40;99.90
25582;DHT22;13462;50.764;4.332;2023-02-01T06:31:22;4.50;99.90
25582;DHT22;13462;50.764;4.332;2023-02-01T06:33:48;4.50;99.90
25582;DHT22;13462;50.764;4.332;2023-02-01T06:36:14;4.50;99.90
25582;DHT22;13462;50.764;4.332;2023-02-01T06:38:45;4.50;99.90
25582;DHT22;13462;50.764;4.332;2023-02-01T06:41:14;4.40;99.90
25582;DHT22;13462;50.764;4.332;2023-02-01T06:43:40;4.50;99.90
25582;DHT22;13462;50.764;4.332;2023-02-01T06:46:06;4.40;99.90
25582;DHT22;13462;50.764;4.332;2023-02-01T06:48:32;4.40;99.90
25582;DHT22;13462;50.764;4.332;2023-02-01T06:50:58;4.30;99.90
25582;DHT22;13462;50.764;4.332;2023-02-01T06:53:24;4.40;99.90
25582;DHT22;13462;50.764;4.332;2023-02-01T06:56:03;4.40;99.90
25582;DHT22;13462;50.764;4.332;2023-02-01T06:58:49;4.40;99.90
25582;DHT22;13462;50.764;4.332;2023-02-01T07:01:15;4.40;99.90
25582;DHT22;13462;50.764;4.332;2023-02-01T07:03:41;4.40;99.90
25582;DHT22;13462;50.764;4.332;2023-02-01T07:06:07;4.30;99.90
25582;DHT22;13462;50.764;4.332;2023-02-01T07:08:33;4.40;99.90
25582;DHT22;13462;50.764;4.332;2023-02-01T07:11:19;4.40;99.90
25582;DHT22;13462;50.764;4.332;2023-02-01T07:13:47;4.30;99.90
25582;DHT22;13462;50.764;4.332;2023-02-01T07:16:17;4.30;99.90
25582;DHT22;13462;50.764;4.332;2023-02-01T07:18:43;4.30;99.90
25582;DHT22;13462;50.764;4.332;2023-02-01T07:21:09;4.40;99.90
25582;DHT22;13462;50.764;4.332;2023-02-01T07:23:42;4.50;99.90
25582;DHT22;13462;50.764;4.332;2023-02-01T07:26:07;4.40;99.90
25582;DHT22;13462;50.764;4.332;2023-02-01T07:28:35;4.40;99.90
25582;DHT22;13462;50.764;4.332;2023-02-01T07:31:04;4.50;99.90
25582;DHT22;13462;50.764;4.332;2023-02-01T07:33:30;4.50;99.90
25582;DHT22;13462;50.764;4.332;2023-02-01T07:36:00;4.40;99.90
25582;DHT22;13462;50.764;4.332;2023-02-01T07:38:26;4.50;99.90
25582;DHT22;13462;50.764;4.332;2023-02-01T07:40:56;4.50;99.90
25582;DHT22;13462;50.764;4.332;2023-02-01T07:43:22;4.50;99.90
25582;DHT22;13462;50.764;4.332;2023-02-01T07:45:51;4.60;99.90
25582;DHT22;13462;50.764;4.332;2023-02-01T07:48:17;4.70;99.90
25582;DHT22;13462;50.764;4.332;2023-02-01T07:50:43;4.70;99.90
25582;DHT22;13462;50.764;4.332;2023-02-01T07:53:09;4.70;99.90
25582;DHT22;13462;50.764;4.332;2023-02-01T07:55:36;4.80;99.90
25582;DHT22;13462;50.764;4.332;2023-02-01T07:58:02;4.90;99.90
25582;DHT22;13462;50.764;4.332;2023-02-01T08:00:27;5.00;99.90
25582;DHT22;13462;50.764;4.332;2023-02-01T08:03:12;5.10;99.90
25582;DHT22;13462;50.764;4.332;2023-02-01T08:05:37;5.30;99.90
25582;DHT22;13462;50.764;4.332;2023-02-01T08:08:03;5.30;99.90
25582;DHT22;13462;50.764;4.332;2023-02-01T08:10:29;5.40;99.90
25582;DHT22;13462;50.764;4.332;2023-02-01T08:12:57;5.40;99.90
25582;DHT22;13462;50.764;4.332;2023-02-01T08:15:23;5.50;99.90
25582;DHT22;13462;50.764;4.332;2023-02-01T08:17:49;5.60;99.90
25582;DHT22;13462;50.764;4.332;2023-02-01T08:20:15;5.60;99.90
25582;DHT22;13462;50.764;4.332;2023-02-01T08:22:41;5.70;99.90
25582;DHT22;13462;50.764;4.332;2023-02-01T08:25:07;5.80;99.90
25582;DHT22;13462;50.764;4.332;2023-02-01T08:27:33;5.90;99.90
25582;DHT22;13462;50.764;4.332;2023-02-01T08:29:58;6.10;99.90
25582;DHT22;13462;50.764;4.332;2023-02-01T08:32:24;6.10;99.90
25582;DHT22;13462;50.764;4.332;2023-02-01T08:34:50;6.10;99.90
25582;DHT22;13462;50.764;4.332;2023-02-01T08:37:15;6.10;99.90
25582;DHT22;13462;50.764;4.332;2023-02-01T08:39:41;6.10;99.90
25582;DHT22;13462;50.764;4.332;2023-02-01T08:42:08;6.10;99.90
25582;DHT22;13462;50.764;4.332;2023-02-01T08:44:52;6.10;99.90
25582;DHT22;13462;50.764;4.332;2023-02-01T08:47:18;6.10;99.90
25582;DHT22;13462;50.764;4.332;2023-02-01T08:49:43;6.30;99.90
25582;DHT22;13462;50.764;4.332;2023-02-01T08:52:09;6.40;99.90
25582;DHT22;13462;50.764;4.332;2023-02-01T08:54:34;6.50;99.90
25582;DHT22;13462;50.764;4.332;2023-02-01T08:57:00;6.60;99.90
25582;DHT22;13462;50.764;4.332;2023-02-01T08:59:25;6.60;99.90
25582;DHT22;13462;50.764;4.332;2023-02-01T09:01:51;6.60;99.90
25582;DHT22;13462;50.764;4.332;2023-02-01T09:04:17;6.90;99.90
25582;DHT22;13462;50.764;4.332;2023-02-01T09:06:42;7.50;99.90
25582;DHT22;13462;50.764;4.332;2023-02-01T09:09:08;8.10;99.90
25582;DHT22;13462;50.764;4.332;2023-02-01T09:11:33;9.00;99.90
25582;DHT22;13462;50.764;4.332;2023-02-01T09:13:59;9.50;99.90
25582;DHT22;13462;50.764;4.332;2023-02-01T09:16:24;9.80;99.90
25582;DHT22;13462;50.764;4.332;2023-02-01T09:18:50;10.20;99.90
25582;DHT22;13462;50.764;4.332;2023-02-01T09:21:15;10.30;99.90
25582;DHT22;13462;50.764;4.332;2023-02-01T09:23:41;10.50;99.90
25582;DHT22;13462;50.764;4.332;2023-02-01T09:26:06;11.00;99.90
25582;DHT22;13462;50.764;4.332;2023-02-01T09:28:32;12.00;99.90
25582;DHT22;13462;50.764;4.332;2023-02-01T09:30:58;13.10;99.90
25582;DHT22;13462;50.764;4.332;2023-02-01T09:33:24;13.80;99.90
25582;DHT22;13462;50.764;4.332;2023-02-01T09:35:54;14.00;99.90
25582;DHT22;13462;50.764;4.332;2023-02-01T09:38:20;13.60;99.90
25582;DHT22;13462;50.764;4.332;2023-02-01T09:40:46;13.80;99.90
25582;DHT22;13462;50.764;4.332;2023-02-01T09:48:24;16.00;99.10
25582;DHT22;13462;50.764;4.332;2023-02-01T09:50:54;16.80;97.00
25582;DHT22;13462;50.764;4.332;2023-02-01T09:53:30;17.30;95.50
25582;DHT22;13462;50.764;4.332;2023-02-01T09:56:07;17.50;94.60
25582;DHT22;13462;50.764;4.332;2023-02-01T09:58:37;16.80;95.50
25582;DHT22;13462;50.764;4.332;2023-02-01T10:01:05;16.50;95.90
25582;DHT22;13462;50.764;4.332;2023-02-01T10:03:35;17.10;94.30
25582;DHT22;13462;50.764;4.332;2023-02-01T10:08:31;16.70;95.00
25582;DHT22;13462;50.764;4.332;2023-02-01T10:11:07;17.60;93.20
25582;DHT22;13462;50.764;4.332;2023-02-01T10:13:44;18.20;92.40
25582;DHT22;13462;50.764;4.332;2023-02-01T10:26:25;19.30;90.20
25582;DHT22;13462;50.764;4.332;2023-02-01T10:28:55;20.00;87.90
25582;DHT22;13462;50.764;4.332;2023-02-01T10:31:23;19.10;85.80
25582;DHT22;13462;50.764;4.332;2023-02-01T10:33:55;17.90;89.60
25582;DHT22;13462;50.764;4.332;2023-02-01T10:36:32;17.90;90.80
25582;DHT22;13462;50.764;4.332;2023-02-01T10:39:01;18.60;90.30
25582;DHT22;13462;50.764;4.332;2023-02-01T10:41:30;18.70;89.20
25582;DHT22;13462;50.764;4.332;2023-02-01T10:43:57;18.40;88.30
25582;DHT22;13462;50.764;4.332;2023-02-01T10:46:23;17.60;90.30
25582;DHT22;13462;50.764;4.332;2023-02-01T10:48:49;17.80;90.30
25582;DHT22;13462;50.764;4.332;2023-02-01T10:51:26;17.70;90.90
25582;DHT22;13462;50.764;4.332;2023-02-01T10:53:55;18.90;89.30
25582;DHT22;13462;50.764;4.332;2023-02-01T10:56:25;19.70;86.10
25582;DHT22;13462;50.764;4.332;2023-02-01T10:58:51;20.20;83.40
25582;DHT22;13462;50.764;4.332;2023-02-01T11:01:30;19.20;85.40
25582;DHT22;13462;50.764;4.332;2023-02-01T11:08:50;19.50;85.10
25582;DHT22;13462;50.764;4.332;2023-02-01T11:11:17;19.40;82.10
25582;DHT22;13462;50.764;4.332;2023-02-01T11:13:42;19.00;83.90
25582;DHT22;13462;50.764;4.332;2023-02-01T11:16:13;18.70;85.50
25582;DHT22;13462;50.764;4.332;2023-02-01T11:18:39;18.00;86.90
25582;DHT22;13462;50.764;4.332;2023-02-01T11:21:06;18.00;88.10
25582;DHT22;13462;50.764;4.332;2023-02-01T11:23:32;17.40;89.40
25582;DHT22;13462;50.764;4.332;2023-02-01T11:26:09;16.20;90.40
25582;DHT22;13462;50.764;4.332;2023-02-01T11:28:35;15.00;92.20
25582;DHT22;13462;50.764;4.332;2023-02-01T11:31:04;15.30;93.50
25582;DHT22;13462;50.764;4.332;2023-02-01T11:33:33;15.60;92.50
25582;DHT22;13462;50.764;4.332;2023-02-01T11:36:14;15.30;93.00
25582;DHT22;13462;50.764;4.332;2023-02-01T11:38:40;14.90;93.00
25582;DHT22;13462;50.764;4.332;2023-02-01T11:41:11;14.90;93.60
25582;DHT22;13462;50.764;4.332;2023-02-01T11:43:38;14.60;94.50
25582;DHT22;13462;50.764;4.332;2023-02-01T11:46:17;14.40;95.00
25582;DHT22;13462;50.764;4.332;2023-02-01T11:48:47;14.70;94.40
25582;DHT22;13462;50.764;4.332;2023-02-01T11:56:59;13.70;94.50
25582;DHT22;13462;50.764;4.332;2023-02-01T11:59:08;13.90;95.20
25582;DHT22;13462;50.764;4.332;2023-02-01T12:09:34;13.70;95.20
25582;DHT22;13462;50.764;4.332;2023-02-01T12:12:08;14.20;95.10
25582;DHT22;13462;50.764;4.332;2023-02-01T12:14:59;13.80;94.50
25582;DHT22;13462;50.764;4.332;2023-02-01T12:17:33;13.60;95.30
25582;DHT22;13462;50.764;4.332;2023-02-01T12:20:07;13.60;95.20
25582;DHT22;13462;50.764;4.332;2023-02-01T12:30:41;14.90;92.50
25582;DHT22;13462;50.764;4.332;2023-02-01T12:38:20;12.80;96.20
25582;DHT22;13462;50.764;4.332;2023-02-01T12:43:31;12.10;98.00
25582;DHT22;13462;50.764;4.332;2023-02-01T12:46:04;12.00;98.10
25582;DHT22;13462;50.764;4.332;2023-02-01T12:48:38;12.30;97.60
25582;DHT22;13462;50.764;4.332;2023-02-01T12:53:42;12.50;96.70
25582;DHT22;13462;50.764;4.332;2023-02-01T12:56:09;12.90;96.60
25582;DHT22;13462;50.764;4.332;2023-02-01T13:01:02;15.10;92.80
25582;DHT22;13462;50.764;4.332;2023-02-01T13:03:34;15.10;92.10
25582;DHT22;13462;50.764;4.332;2023-02-01T13:11:29;16.90;90.00
25582;DHT22;13462;50.764;4.332;2023-02-01T13:13:59;17.00;88.70
25582;DHT22;13462;50.764;4.332;2023-02-01T13:19:02;16.30;90.40
25582;DHT22;13462;50.764;4.332;2023-02-01T13:21:31;17.10;90.40
25582;DHT22;13462;50.764;4.332;2023-02-01T13:23:58;17.30;87.20
25582;DHT22;13462;50.764;4.332;2023-02-01T13:26:23;17.00;89.40
25582;DHT22;13462;50.764;4.332;2023-02-01T13:28:50;16.20;89.20
25582;DHT22;13462;50.764;4.332;2023-02-01T13:34:25;14.50;92.50
25582;DHT22;13462;50.764;4.332;2023-02-01T13:36:56;14.60;92.10
25582;DHT22;13462;50.764;4.332;2023-02-01T13:42:11;15.90;91.50
25582;DHT22;13462;50.764;4.332;2023-02-01T13:44:46;15.60;91.00
25582;DHT22;13462;50.764;4.332;2023-02-01T13:47:23;16.00;90.80
25582;DHT22;13462;50.764;4.332;2023-02-01T13:49:49;16.30;90.20
25582;DHT22;13462;50.764;4.332;2023-02-01T13:52:22;15.70;90.80
25582;DHT22;13462;50.764;4.332;2023-02-01T13:54:49;15.40;91.50
25582;DHT22;13462;50.764;4.332;2023-02-01T13:57:32;14.80;92.40
25582;DHT22;13462;50.764;4.332;2023-02-01T14:00:45;14.80;92.50
25582;DHT22;13462;50.764;4.332;2023-02-01T14:02:46;14.10;92.90
25582;DHT22;13462;50.764;4.332;2023-02-01T14:05:54;13.40;94.60
25582;DHT22;13462;50.764;4.332;2023-02-01T14:13:21;13.20;96.60
25582;DHT22;13462;50.764;4.332;2023-02-01T14:23:37;12.90;97.00
25582;DHT22;13462;50.764;4.332;2023-02-01T14:26:04;12.80;96.70
25582;DHT22;13462;50.764;4.332;2023-02-01T14:28:30;12.60;97.10
25582;DHT22;13462;50.764;4.332;2023-02-01T14:30:56;12.40;98.60
25582;DHT22;13462;50.764;4.332;2023-02-01T14:33:23;12.10;98.70
25582;DHT22;13462;50.764;4.332;2023-02-01T14:36:04;12.10;99.30
25582;DHT22;13462;50.764;4.332;2023-02-01T14:38:30;12.00;99.90
25582;DHT22;13462;50.764;4.332;2023-02-01T14:41:10;12.10;99.90
25582;DHT22;13462;50.764;4.332;2023-02-01T14:43:49;12.00;99.90
25582;DHT22;13462;50.764;4.332;2023-02-01T14:46:14;11.40;99.90
25582;DHT22;13462;50.764;4.332;2023-02-01T14:48:41;11.10;99.90
25582;DHT22;13462;50.764;4.332;2023-02-01T14:51:08;11.00;99.90
25582;DHT22;13462;50.764;4.332;2023-02-01T14:53:36;10.80;99.90
25582;DHT22;13462;50.764;4.332;2023-02-01T14:58:47;10.70;99.90
25582;DHT22;13462;50.764;4.332;2023-02-01T15:06:12;10.30;99.90
25582;DHT22;13462;50.764;4.332;2023-02-01T15:08:41;10.20;99.90
25582;DHT22;13462;50.764;4.332;2023-02-01T15:11:08;10.20;99.90
25582;DHT22;13462;50.764;4.332;2023-02-01T15:13:37;10.20;99.90
25582;DHT22;13462;50.764;4.332;2023-02-01T15:16:12;10.20;99.90
25582;DHT22;13462;50.764;4.332;2023-02-01T15:18:38;9.90;99.90
25582;DHT22;13462;50.764;4.332;2023-02-01T15:21:04;9.80;99.90
25582;DHT22;13462;50.764;4.332;2023-02-01T15:23:31;9.90;99.90
25582;DHT22;13462;50.764;4.332;2023-02-01T15:25:56;9.80;99.90
25582;DHT22;13462;50.764;4.332;2023-02-01T15:28:22;9.90;99.90
25582;DHT22;13462;50.764;4.332;2023-02-01T15:30:52;9.80;99.90
25582;DHT22;13462;50.764;4.332;2023-02-01T15:33:18;9.80;99.90
25582;DHT22;13462;50.764;4.332;2023-02-01T15:35:45;9.90;99.90
25582;DHT22;13462;50.764;4.332;2023-02-01T15:40:53;9.90;99.90
25582;DHT22;13462;50.764;4.332;2023-02-01T15:43:19;9.80;99.90
25582;DHT22;13462;50.764;4.332;2023-02-01T15:45:44;9.80;99.90
25582;DHT22;13462;50.764;4.332;2023-02-01T15:48:14;9.70;99.90
25582;DHT22;13462;50.764;4.332;2023-02-01T15:50:45;9.60;99.90
25582;DHT22;13462;50.764;4.332;2023-02-01T15:53:13;9.40;99.90
25582;DHT22;13462;50.764;4.332;2023-02-01T15:55:40;9.40;99.90
25582;DHT22;13462;50.764;4.332;2023-02-01T15:58:20;9.50;99.90
25582;DHT22;13462;50.764;4.332;2023-02-01T16:00:47;9.50;99.90
25582;DHT22;13462;50.764;4.332;2023-02-01T16:03:26;9.40;99.90
25582;DHT22;13462;50.764;4.332;2023-02-01T16:05:56;9.40;99.90
25582;DHT22;13462;50.764;4.332;2023-02-01T16:08:23;9.40;99.90
25582;DHT22;13462;50.764;4.332;2023-02-01T16:10:49;9.40;99.90
25582;DHT22;13462;50.764;4.332;2023-02-01T16:13:16;9.40;99.90
25582;DHT22;13462;50.764;4.332;2023-02-01T16:15:42;9.30;99.90
25582;DHT22;13462;50.764;4.332;2023-02-01T16:18:08;9.30;99.90
25582;DHT22;13462;50.764;4.332;2023-02-01T16:20:34;9.30;99.90
25582;DHT22;13462;50.764;4.332;2023-02-01T16:23:00;9.30;99.90
25582;DHT22;13462;50.764;4.332;2023-02-01T16:25:26;9.40;99.90
25582;DHT22;13462;50.764;4.332;2023-02-01T16:27:51;9.20;99.90
25582;DHT22;13462;50.764;4.332;2023-02-01T16:30:17;9.20;99.90
25582;DHT22;13462;50.764;4.332;2023-02-01T16:32:58;9.20;99.90
25582;DHT22;13462;50.764;4.332;2023-02-01T16:37:49;9.20;99.90
25582;DHT22;13462;50.764;4.332;2023-02-01T16:40:15;9.10;99.90
25582;DHT22;13462;50.764;4.332;2023-02-01T16:42:41;9.10;99.90
25582;DHT22;13462;50.764;4.332;2023-02-01T16:45:06;9.30;99.90
25582;DHT22;13462;50.764;4.332;2023-02-01T16:47:33;9.20;99.90
25582;DHT22;13462;50.764;4.332;2023-02-01T16:50:01;9.20;99.90
25582;DHT22;13462;50.764;4.332;2023-02-01T16:52:26;9.30;99.90
25582;DHT22;13462;50.764;4.332;2023-02-01T16:54:52;9.20;99.90
25582;DHT22;13462;50.764;4.332;2023-02-01T16:57:18;9.30;99.90
25582;DHT22;13462;50.764;4.332;2023-02-01T16:59:48;9.20;99.90
25582;DHT22;13462;50.764;4.332;2023-02-01T17:02:15;9.30;99.90
25582;DHT22;13462;50.764;4.332;2023-02-01T17:04:41;9.10;99.90
25582;DHT22;13462;50.764;4.332;2023-02-01T17:07:06;9.10;99.90
25582;DHT22;13462;50.764;4.332;2023-02-01T17:09:35;9.10;99.90
25582;DHT22;13462;50.764;4.332;2023-02-01T17:12:01;9.20;99.90
25582;DHT22;13462;50.764;4.332;2023-02-01T17:14:26;9.30;99.90
25582;DHT22;13462;50.764;4.332;2023-02-01T17:16:52;9.10;99.90
25582;DHT22;13462;50.764;4.332;2023-02-01T17:19:19;9.10;99.90
25582;DHT22;13462;50.764;4.332;2023-02-01T17:21:48;9.10;99.90
25582;DHT22;13462;50.764;4.332;2023-02-01T17:24:17;9.10;99.90
25582;DHT22;13462;50.764;4.332;2023-02-01T17:26:43;9.20;99.90
25582;DHT22;13462;50.764;4.332;2023-02-01T17:29:09;9.20;99.90
25582;DHT22;13462;50.764;4.332;2023-02-01T17:31:37;9.10;99.90
25582;DHT22;13462;50.764;4.332;2023-02-01T17:34:03;9.10;99.90
25582;DHT22;13462;50.764;4.332;2023-02-01T17:36:28;9.00;99.90
25582;DHT22;13462;50.764;4.332;2023-02-01T17:38:54;8.90;99.90
25582;DHT22;13462;50.764;4.332;2023-02-01T17:41:20;8.90;99.90
25582;DHT22;13462;50.764;4.332;2023-02-01T17:43:45;8.80;99.90
25582;DHT22;13462;50.764;4.332;2023-02-01T17:46:12;8.80;99.90
25582;DHT22;13462;50.764;4.332;2023-02-01T17:48:38;8.70;99.90
25582;DHT22;13462;50.764;4.332;2023-02-01T17:51:05;8.80;99.90
25582;DHT22;13462;50.764;4.332;2023-02-01T17:53:30;8.80;99.90
25582;DHT22;13462;50.764;4.332;2023-02-01T17:55:58;8.80;99.90
25582;DHT22;13462;50.764;4.332;2023-02-01T17:58:23;8.80;99.90
25582;DHT22;13462;50.764;4.332;2023-02-01T18:00:50;8.90;99.90
25582;DHT22;13462;50.764;4.332;2023-02-01T18:03:20;8.80;99.90
25582;DHT22;13462;50.764;4.332;2023-02-01T18:05:47;8.80;99.90
25582;DHT22;13462;50.764;4.332;2023-02-01T18:08:16;8.70;99.90
25582;DHT22;13462;50.764;4.332;2023-02-01T18:10:42;8.70;99.90